sensor_id;sensor_type;location;lat;lon;timestamp;temperature;humidity
73643;DHT22;61938;48.652;9.292;2023-04-15T00:00:54;3.50;99.90
73643;DHT22;61938;48.652;9.292;2023-04-15T00:03:19;3.40;99.90
73643;DHT22;61938;48.652;9.292;2023-04-15T00:05:45;3.30;99.90
73643;DHT22;61938;48.652;9.292;2023-04-15T00:08:10;3.30;99.90
73643;DHT22;61938;48.652;9.292;2023-04-15T00:10:37;3.40;99.90
73643;DHT22;61938;48.652;9.292;2023-04-15T00:13:02;3.40;99.90
73643;DHT22;61938;48.652;9.292;2023-04-15T00:15:28;3.50;99.90
73643;DHT22;61938;48.652;9.292;2023-04-15T00:17:54;3.40;99.90
73643;DHT22;61938;48.652;9.292;2023-04-15T00:20:19;3.40;99.90
73643;DHT22;61938;48.652;9.292;2023-04-15T00:22:45;3.40;99.90
73643;DHT22;61938;48.652;9.292;2023-04-15T00:25:11;3.40;99.90
73643;DHT22;61938;48.652;9.292;2023-04-15T00:27:37;3.40;99.90
73643;DHT22;61938;48.652;9.292;2023-04-15T00:30:03;3.30;99.90
73643;DHT22;61938;48.652;9.292;2023-04-15T00:32:29;3.30;99.90
73643;DHT22;61938;48.652;9.292;2023-04-15T00:34:55;3.20;99.90
73643;DHT22;61938;48.652;9.292;2023-04-15T00:37:20;3.20;99.90
73643;DHT22;61938;48.652;9.292;2023-04-15T00:39:46;3.20;99.90
73643;DHT22;61938;48.652;9.292;2023-04-15T00:42:12;3.10;99.90
73643;DHT22;61938;48.652;9.292;2023-04-15T00:44:38;3.00;99.90
73643;DHT22;61938;48.652;9.292;2023-04-15T00:47:04;3.00;99.90
73643;DHT22;61938;48.652;9.292;2023-04-15T00:49:30;2.90;99.90
73643;DHT22;61938;48.652;9.292;2023-04-15T00:51:56;2.80;99.90
73643;DHT22;61938;48.652;9.292;2023-04-15T00:54:22;2.80;99.90
73643;DHT22;61938;48.652;9.292;2023-04-15T00:56:47;2.80;99.90
73643;DHT22;61938;48.652;9.292;2023-04-15T00:59:14;2.70;99.90
73643;DHT22;61938;48.652;9.292;2023-04-15T01:01:39;2.60;99.90
73643;DHT22;61938;48.652;9.292;2023-04-15T01:04:06;2.60;99.90
73643;DHT22;61938;48.652;9.292;2023-04-15T01:06:31;2.60;99.90
73643;DHT22;61938;48.652;9.292;2023-04-15T01:08:58;2.60;99.90
73643;DHT22;61938;48.652;9.292;2023-04-15T01:11:24;2.40;99.90
73643;DHT22;61938;48.652;9.292;2023-04-15T01:13:51;2.40;99.90
73643;DHT22;61938;48.652;9.292;2023-04-15T01:16:17;2.30;99.90
73643;DHT22;61938;48.652;9.292;2023-04-15T01:18:43;2.30;99.90
73643;DHT22;61938;48.652;9.292;2023-04-15T01:21:09;2.20;99.90
73643;DHT22;61938;48.652;9.292;2023-04-15T01:23:36;2.10;99.90
73643;DHT22;61938;48.652;9.292;2023-04-15T01:26:04;2.20;99.90
73643;DHT22;61938;48.652;9.292;2023-04-15T01:28:33;2.20;99.90
73643;DHT22;61938;48.652;9.292;2023-04-15T01:31:12;2.20;99.90
73643;DHT22;61938;48.652;9.292;2023-04-15T01:33:39;2.20;99.90
73643;DHT22;61938;48.652;9.292;2023-04-15T01:36:06;2.20;99.90
73643;DHT22;61938;48.652;9.292;2023-04-15T01:38:36;2.20;99.90
73643;DHT22;61938;48.652;9.292;2023-04-15T01:41:01;2.20;99.90
73643;DHT22;61938;48.652;9.292;2023-04-15T01:43:29;2.10;99.90
73643;DHT22;61938;48.652;9.292;2023-04-15T01:45:54;2.10;99.90
73643;DHT22;61938;48.652;9.292;2023-04-15T01:48:21;2.20;99.90
73643;DHT22;61938;48.652;9.292;2023-04-15T01:50:47;2.10;99.90
73643;DHT22;61938;48.652;9.292;2023-04-15T01:53:12;2.10;99.90
73643;DHT22;61938;48.652;9.292;2023-04-15T01:55:38;2.10;99.90
73643;DHT22;61938;48.652;9.292;2023-04-15T01:58:03;2.10;99.90
73643;DHT22;61938;48.652;9.292;2023-04-15T02:00:29;2.10;99.90
73643;DHT22;61938;48.652;9.292;2023-04-15T02:02:56;2.10;99.90
73643;DHT22;61938;48.652;9.292;2023-04-15T02:05:23;2.10;99.90
73643;DHT22;61938;48.652;9.292;2023-04-15T02:07:50;2.00;99.90
73643;DHT22;61938;48.652;9.292;2023-04-15T02:10:15;2.10;99.90
73643;DHT22;61938;48.652;9.292;2023-04-15T02:12:41;2.00;99.90
73643;DHT22;61938;48.652;9.292;2023-04-15T02:15:07;2.00;99.90
73643;DHT22;61938;48.652;9.292;2023-04-15T02:17:34;1.90;99.90
73643;DHT22;61938;48.652;9.292;2023-04-15T02:20:00;1.90;99.90
73643;DHT22;61938;48.652;9.292;2023-04-15T02:22:25;2.00;99.90
73643;DHT22;61938;48.652;9.292;2023-04-15T02:24:51;2.00;99.90
73643;DHT22;61938;48.652;9.292;2023-04-15T02:27:17;2.00;99.90
73643;DHT22;61938;48.652;9.292;2023-04-15T02:29:45;2.00;99.90
73643;DHT22;61938;48.652;9.292;2023-04-15T02:32:12;1.90;99.90
73643;DHT22;61938;48.652;9.292;2023-04-15T02:34:40;1.90;99.90
73643;DHT22;61938;48.652;9.292;2023-04-15T02:37:11;1.80;99.90
73643;DHT22;61938;48.652;9.292;2023-04-15T02:39:37;1.80;99.90
73643;DHT22;61938;48.652;9.292;2023-04-15T02:42:03;1.70;99.90
73643;DHT22;61938;48.652;9.292;2023-04-15T02:44:30;1.60;99.90
73643;DHT22;61938;48.652;9.292;2023-04-15T02:46:57;1.60;99.90
73643;DHT22;61938;48.652;9.292;2023-04-15T02:49:23;1.60;99.90
73643;DHT22;61938;48.652;9.292;2023-04-15T02:51:49;1.60;99.90
73643;DHT22;61938;48.652;9.292;2023-04-15T02:54:19;1.60;99.90
73643;DHT22;61938;48.652;9.292;2023-04-15T02:56:45;1.70;99.90
73643;DHT22;61938;48.652;9.292;2023-04-15T02:59:11;1.70;99.90
73643;DHT22;61938;48.652;9.292;2023-04-15T03:01:37;1.70;99.90
73643;DHT22;61938;48.652;9.292;2023-04-15T03:04:02;1.70;99.90
73643;DHT22;61938;48.652;9.292;2023-04-15T03:06:28;1.70;99.90
73643;DHT22;61938;48.652;9.292;2023-04-15T03:08:53;1.60;99.90
73643;DHT22;61938;48.652;9.292;2023-04-15T03:11:19;1.60;99.90
73643;DHT22;61938;48.652;9.292;2023-04-15T03:13:45;1.60;99.90
73643;DHT22;61938;48.652;9.292;2023-04-15T03:16:11;1.60;99.90
73643;DHT22;61938;48.652;9.292;2023-04-15T03:18:37;1.60;99.90
73643;DHT22;61938;48.652;9.292;2023-04-15T03:21:03;1.60;99.90
73643;DHT22;61938;48.652;9.292;2023-04-15T03:23:30;1.60;99.90
73643;DHT22;61938;48.652;9.292;2023-04-15T03:25:55;1.50;99.90
73643;DHT22;61938;48.652;9.292;2023-04-15T03:28:22;1.50;99.90
73643;DHT22;61938;48.652;9.292;2023-04-15T03:30:48;1.40;99.90
73643;DHT22;61938;48.652;9.292;2023-04-15T03:33:13;1.40;99.90
73643;DHT22;61938;48.652;9.292;2023-04-15T03:35:39;1.40;99.90
73643;DHT22;61938;48.652;9.292;2023-04-15T03:38:04;1.40;99.90
73643;DHT22;61938;48.652;9.292;2023-04-15T03:40:30;1.40;99.90
73643;DHT22;61938;48.652;9.292;2023-04-15T03:42:56;1.40;99.90
73643;DHT22;61938;48.652;9.292;2023-04-15T03:45:21;1.40;99.90
73643;DHT22;61938;48.652;9.292;2023-04-15T03:47:47;1.40;99.90
73643;DHT22;61938;48.652;9.292;2023-04-15T03:50:14;1.30;99.90
73643;DHT22;61938;48.652;9.292;2023-04-15T03:52:39;1.30;99.90
73643;DHT22;61938;48.652;9.292;2023-04-15T03:55:05;1.40;99.90
73643;DHT22;61938;48.652;9.292;2023-04-15T03:57:31;1.40;99.90
73643;DHT22;61938;48.652;9.292;2023-04-15T03:59:56;1.40;99.90
73643;DHT22;61938;48.652;9.292;2023-04-15T04:02:22;1.40;99.90
73643;DHT22;61938;48.652;9.292;2023-04-15T04:04:47;1.40;99.90
73643;DHT22;61938;48.652;9.292;2023-04-15T04:07:17;1.40;99.90
73643;DHT22;61938;48.652;9.292;2023-04-15T04:09:42;1.40;99.90
73643;DHT22;61938;48.652;9.292;2023-04-15T04:12:08;1.40;99.90
73643;DHT22;61938;48.652;9.292;2023-04-15T04:14:33;1.40;99.90
73643;DHT22;61938;48.652;9.292;2023-04-15T04:16:59;1.30;99.90
73643;DHT22;61938;48.652;9.292;2023-04-15T04:19:25;1.30;99.90
73643;DHT22;61938;48.652;9.292;2023-04-15T04:21:51;1.30;99.90
73643;DHT22;61938;48.652;9.292;2023-04-15T04:24:16;1.30;99.90
73643;DHT22;61938;48.652;9.292;2023-04-15T04:26:42;1.30;99.90
73643;DHT22;61938;48.652;9.292;2023-04-15T04:29:07;1.20;99.90
73643;DHT22;61938;48.652;9.292;2023-04-15T04:31:33;1.30;99.90
73643;DHT22;61938;48.652;9.292;2023-04-15T04:33:59;1.30;99.90
73643;DHT22;61938;48.652;9.292;2023-04-15T04:36:24;1.30;99.90
73643;DHT22;61938;48.652;9.292;2023-04-15T04:38:50;1.20;99.90
73643;DHT22;61938;48.652;9.292;2023-04-15T04:41:17;1.30;99.90
73643;DHT22;61938;48.652;9.292;2023-04-15T04:43:42;1.20;99.90
73643;DHT22;61938;48.652;9.292;2023-04-15T04:46:08;1.20;99.90
73643;DHT22;61938;48.652;9.292;2023-04-15T04:48:33;1.30;99.90
73643;DHT22;61938;48.652;9.292;2023-04-15T04:50:59;1.30;99.90
73643;DHT22;61938;48.652;9.292;2023-04-15T04:53:24;1.20;99.90
73643;DHT22;61938;48.652;9.292;2023-04-15T04:55:50;1.20;99.90
73643;DHT22;61938;48.652;9.292;2023-04-15T04:58:16;1.20;99.90
73643;DHT22;61938;48.652;9.292;2023-04-15T05:00:42;1.10;99.90
73643;DHT22;61938;48.652;9.292;2023-04-15T05:03:07;1.10;99.90
73643;DHT22;61938;48.652;9.292;2023-04-15T05:05:33;1.20;99.90
73643;DHT22;61938;48.652;9.292;2023-04-15T05:08:00;1.20;99.90
73643;DHT22;61938;48.652;9.292;2023-04-15T05:10:25;1.20;99.90
73643;DHT22;61938;48.652;9.292;2023-04-15T05:12:51;1.30;99.90
73643;DHT22;61938;48.652;9.292;2023-04-15T05:15:16;1.30;99.90
73643;DHT22;61938;48.652;9.292;2023-04-15T05:17:42;1.30;99.90
73643;DHT22;61938;48.652;9.292;2023-04-15T05:20:08;1.40;99.90
73643;DHT22;61938;48.652;9.292;2023-04-15T05:22:34;1.40;99.90
73643;DHT22;61938;48.652;9.292;2023-04-15T05:24:59;1.50;99.90
73643;DHT22;61938;48.652;9.292;2023-04-15T05:27:25;1.50;99.90
73643;DHT22;61938;48.652;9.292;2023-04-15T05:29:50;1.50;99.90
73643;DHT22;61938;48.652;9.292;2023-04-15T05:32:16;1.60;99.90
73643;DHT22;61938;48.652;9.292;2023-04-15T05:34:42;1.60;99.90
73643;DHT22;61938;48.652;9.292;2023-04-15T05:37:07;1.80;99.90
73643;DHT22;61938;48.652;9.292;2023-04-15T05:39:33;1.80;99.90
73643;DHT22;61938;48.652;9.292;2023-04-15T05:41:58;2.00;99.90
73643;DHT22;61938;48.652;9.292;2023-04-15T05:44:25;2.10;99.90
73643;DHT22;61938;48.652;9.292;2023-04-15T05:46:51;2.20;99.90
73643;DHT22;61938;48.652;9.292;2023-04-15T05:49:16;2.30;99.90
73643;DHT22;61938;48.652;9.292;2023-04-15T05:51:42;2.30;99.90
73643;DHT22;61938;48.652;9.292;2023-04-15T05:54:07;2.60;99.90
73643;DHT22;61938;48.652;9.292;2023-04-15T05:56:33;2.70;99.90
73643;DHT22;61938;48.652;9.292;2023-04-15T05:58:58;2.90;99.90
73643;DHT22;61938;48.652;9.292;2023-04-15T06:01:24;3.20;99.90
73643;DHT22;61938;48.652;9.292;2023-04-15T06:03:50;3.30;99.90
73643;DHT22;61938;48.652;9.292;2023-04-15T06:06:15;3.50;99.90
73643;DHT22;61938;48.652;9.292;2023-04-15T06:08:41;3.60;99.90
73643;DHT22;61938;48.652;9.292;2023-04-15T06:11:06;3.80;99.90
73643;DHT22;61938;48.652;9.292;2023-04-15T06:13:32;4.00;99.90
73643;DHT22;61938;48.652;9.292;2023-04-15T06:15:58;4.10;99.90
73643;DHT22;61938;48.652;9.292;2023-04-15T06:18:24;4.30;99.90
73643;DHT22;61938;48.652;9.292;2023-04-15T06:20:49;4.50;99.90
73643;DHT22;61938;48.652;9.292;2023-04-15T06:23:15;4.70;99.90
73643;DHT22;61938;48.652;9.292;2023-04-15T06:25:41;4.80;99.90
73643;DHT22;61938;48.652;9.292;2023-04-15T06:28:06;5.10;99.90
73643;DHT22;61938;48.652;9.292;2023-04-15T06:30:32;5.30;99.90
73643;DHT22;61938;48.652;9.292;2023-04-15T06:32:58;5.40;99.90
73643;DHT22;61938;48.652;9.292;2023-04-15T06:35:23;5.50;99.90
73643;DHT22;61938;48.652;9.292;2023-04-15T06:37:48;5.50;99.90
73643;DHT22;61938;48.652;9.292;2023-04-15T06:40:14;5.50;99.90
73643;DHT22;61938;48.652;9.292;2023-04-15T06:42:40;5.40;99.90
73643;DHT22;61938;48.652;9.292;2023-04-15T06:45:06;5.40;99.90
73643;DHT22;61938;48.652;9.292;2023-04-15T06:47:32;5.40;99.90
73643;DHT22;61938;48.652;9.292;2023-04-15T06:49:58;5.40;99.90
73643;DHT22;61938;48.652;9.292;2023-04-15T06:52:23;5.50;99.90
73643;DHT22;61938;48.652;9.292;2023-04-15T06:54:49;5.50;99.90
73643;DHT22;61938;48.652;9.292;2023-04-15T06:57:14;5.40;99.90
73643;DHT22;61938;48.652;9.292;2023-04-15T06:59:40;5.40;99.90
73643;DHT22;61938;48.652;9.292;2023-04-15T07:02:08;5.50;99.90
73643;DHT22;61938;48.652;9.292;2023-04-15T07:04:35;5.60;99.90
73643;DHT22;61938;48.652;9.292;2023-04-15T07:07:01;5.70;99.90
73643;DHT22;61938;48.652;9.292;2023-04-15T07:09:26;5.80;99.90
73643;DHT22;61938;48.652;9.292;2023-04-15T07:11:52;5.80;99.90
73643;DHT22;61938;48.652;9.292;2023-04-15T07:14:17;5.80;99.90
73643;DHT22;61938;48.652;9.292;2023-04-15T07:16:43;5.80;99.90
73643;DHT22;61938;48.652;9.292;2023-04-15T07:19:08;5.90;99.90
73643;DHT22;61938;48.652;9.292;2023-04-15T07:21:34;6.00;99.90
73643;DHT22;61938;48.652;9.292;2023-04-15T07:23:59;6.30;99.90
73643;DHT22;61938;48.652;9.292;2023-04-15T07:26:25;6.60;99.90
73643;DHT22;61938;48.652;9.292;2023-04-15T07:28:51;6.80;99.90
73643;DHT22;61938;48.652;9.292;2023-04-15T07:31:16;6.90;99.90
73643;DHT22;61938;48.652;9.292;2023-04-15T07:33:42;6.90;99.90
73643;DHT22;61938;48.652;9.292;2023-04-15T07:36:08;6.70;99.90
73643;DHT22;61938;48.652;9.292;2023-04-15T07:38:33;6.70;99.90
73643;DHT22;61938;48.652;9.292;2023-04-15T07:40:59;6.70;99.90
73643;DHT22;61938;48.652;9.292;2023-04-15T07:43:24;6.70;99.90
73643;DHT22;61938;48.652;9.292;2023-04-15T07:45:50;6.60;99.90
73643;DHT22;61938;48.652;9.292;2023-04-15T07:48:15;6.60;99.90
73643;DHT22;61938;48.652;9.292;2023-04-15T07:50:41;6.80;99.90
73643;DHT22;61938;48.652;9.292;2023-04-15T07:53:07;6.80;99.90
73643;DHT22;61938;48.652;9.292;2023-04-15T07:55:32;7.00;99.90
73643;DHT22;61938;48.652;9.292;2023-04-15T07:57:58;7.20;99.90
73643;DHT22;61938;48.652;9.292;2023-04-15T08:00:23;7.30;99.90
73643;DHT22;61938;48.652;9.292;2023-04-15T08:02:49;7.60;99.90
73643;DHT22;61938;48.652;9.292;2023-04-15T08:05:16;7.80;99.90
73643;DHT22;61938;48.652;9.292;2023-04-15T08:07:42;8.20;99.90
73643;DHT22;61938;48.652;9.292;2023-04-15T08:10:08;8.20;99.90
73643;DHT22;61938;48.652;9.292;2023-04-15T08:12:34;8.40;99.90
73643;DHT22;61938;48.652;9.292;2023-04-15T08:15:00;8.50;99.90
73643;DHT22;61938;48.652;9.292;2023-04-15T08:17:26;8.70;99.90
73643;DHT22;61938;48.652;9.292;2023-04-15T08:19:52;8.90;99.90
73643;DHT22;61938;48.652;9.292;2023-04-15T08:22:18;9.00;99.90
73643;DHT22;61938;48.652;9.292;2023-04-15T08:24:44;9.20;99.90
73643;DHT22;61938;48.652;9.292;2023-04-15T08:27:09;9.40;99.90
73643;DHT22;61938;48.652;9.292;2023-04-15T08:29:35;9.70;99.90
73643;DHT22;61938;48.652;9.292;2023-04-15T08:32:01;9.80;99.90
73643;DHT22;61938;48.652;9.292;2023-04-15T08:34:27;10.10;99.90
73643;DHT22;61938;48.652;9.292;2023-04-15T08:36:52;10.20;99.90
73643;DHT22;61938;48.652;9.292;2023-04-15T08:39:18;10.60;99.90
73643;DHT22;61938;48.652;9.292;2023-04-15T08:41:51;11.00;99.90
73643;DHT22;61938;48.652;9.292;2023-04-15T08:44:22;11.30;99.90
73643;DHT22;61938;48.652;9.292;2023-04-15T08:46:48;11.80;99.90
73643;DHT22;61938;48.652;9.292;2023-04-15T08:49:14;12.00;99.90
73643;DHT22;61938;48.652;9.292;2023-04-15T08:51:42;12.20;99.90
73643;DHT22;61938;48.652;9.292;2023-04-15T08:54:08;12.20;99.90
73643;DHT22;61938;48.652;9.292;2023-04-15T08:56:35;12.50;99.90
73643;DHT22;61938;48.652;9.292;2023-04-15T08:59:01;12.70;99.90
73643;DHT22;61938;48.652;9.292;2023-04-15T09:01:27;12.70;99.90
73643;DHT22;61938;48.652;9.292;2023-04-15T09:03:53;12.90;99.90
73643;DHT22;61938;48.652;9.292;2023-04-15T09:06:20;13.40;99.90
73643;DHT22;61938;48.652;9.292;2023-04-15T09:08:46;13.90;99.90
73643;DHT22;61938;48.652;9.292;2023-04-15T09:11:12;14.00;99.90
73643;DHT22;61938;48.652;9.292;2023-04-15T09:13:38;13.80;99.90
73643;DHT22;61938;48.652;9.292;2023-04-15T09:16:06;13.80;99.90
73643;DHT22;61938;48.652;9.292;2023-04-15T09:18:34;13.50;99.90
73643;DHT22;61938;48.652;9.292;2023-04-15T09:21:11;13.70;99.90
73643;DHT22;61938;48.652;9.292;2023-04-15T09:23:39;13.80;99.90
73643;DHT22;61938;48.652;9.292;2023-04-15T09:26:05;14.10;99.90
73643;DHT22;61938;48.652;9.292;2023-04-15T09:28:31;14.40;99.90
73643;DHT22;61938;48.652;9.292;2023-04-15T09:30:58;14.90;99.90
73643;DHT22;61938;48.652;9.292;2023-04-15T09:33:25;15.40;99.90
73643;DHT22;61938;48.652;9.292;2023-04-15T09:35:59;15.60;99.90
73643;DHT22;61938;48.652;9.292;2023-04-15T09:38:24;15.60;99.90
73643;DHT22;61938;48.652;9.292;2023-04-15T09:40:50;15.70;99.90
73643;DHT22;61938;48.652;9.292;2023-04-15T09:43:16;15.90;99.90
73643;DHT22;61938;48.652;9.292;2023-04-15T09:45:52;16.00;99.90
73643;DHT22;61938;48.652;9.292;2023-04-15T09:48:23;16.10;99.90
73643;DHT22;61938;48.652;9.292;2023-04-15T09:50:51;16.20;99.90
73643;DHT22;61938;48.652;9.292;2023-04-15T09:53:23;16.10;99.90
73643;DHT22;61938;48.652;9.292;2023-04-15T09:55:57;16.10;99.90
73643;DHT22;61938;48.652;9.292;2023-04-15T09:58:33;16.10;99.90
73643;DHT22;61938;48.652;9.292;2023-04-15T10:01:01;15.80;99.90
73643;DHT22;61938;48.652;9.292;2023-04-15T10:03:29;15.70;99.90
73643;DHT22;61938;48.652;9.292;2023-04-15T10:05:57;15.30;99.90
73643;DHT22;61938;48.652;9.292;2023-04-15T10:08:24;15.30;99.90
73643;DHT22;61938;48.652;9.292;2023-04-15T10:10:51;15.20;99.90
73643;DHT22;61938;48.652;9.292;2023-04-15T10:13:28;15.00;99.90
73643;DHT22;61938;48.652;9.292;2023-04-15T10:15:59;15.10;99.90
73643;DHT22;61938;48.652;9.292;2023-04-15T10:18:26;14.90;99.90
73643;DHT22;61938;48.652;9.292;2023-04-15T10:20:52;14.80;99.90
73643;DHT22;61938;48.652;9.292;2023-04-15T10:23:19;14.80;99.90
73643;DHT22;61938;48.652;9.292;2023-04-15T10:25:46;14.80;99.90
73643;DHT22;61938;48.652;9.292;2023-04-15T10:28:12;14.80;99.90
73643;DHT22;61938;48.652;9.292;2023-04-15T10:30:38;14.90;99.90
73643;DHT22;61938;48.652;9.292;2023-04-15T10:33:04;15.10;99.90
73643;DHT22;61938;48.652;9.292;2023-04-15T10:35:31;15.10;99.90
73643;DHT22;61938;48.652;9.292;2023-04-15T10:37:58;15.10;99.90
73643;DHT22;61938;48.652;9.292;2023-04-15T10:40:28;15.10;99.90
73643;DHT22;61938;48.652;9.292;2023-04-15T10:42:58;15.20;99.90
73643;DHT22;61938;48.652;9.292;2023-04-15T10:45:28;15.60;99.90
73643;DHT22;61938;48.652;9.292;2023-04-15T10:47:57;15.90;99.90
73643;DHT22;61938;48.652;9.292;2023-04-15T10:50:25;16.30;99.90
73643;DHT22;61938;48.652;9.292;2023-04-15T10:52:51;16.50;99.90
73643;DHT22;61938;48.652;9.292;2023-04-15T10:55:30;16.60;99.90
73643;DHT22;61938;48.652;9.292;2023-04-15T10:57:59;16.60;99.20
73643;DHT22;61938;48.652;9.292;2023-04-15T11:00:28;16.60;98.90
73643;DHT22;61938;48.652;9.292;2023-04-15T11:02:55;16.70;97.10
73643;DHT22;61938;48.652;9.292;2023-04-15T11:05:47;17.00;97.70
73643;DHT22;61938;48.652;9.292;2023-04-15T11:08:10;17.10;98.80
73643;DHT22;61938;48.652;9.292;2023-04-15T11:20:51;16.70;95.90
73643;DHT22;61938;48.652;9.292;2023-04-15T11:23:27;17.00;93.50
73643;DHT22;61938;48.652;9.292;2023-04-15T11:25:57;16.90;94.50
73643;DHT22;61938;48.652;9.292;2023-04-15T11:28:28;16.90;94.30
73643;DHT22;61938;48.652;9.292;2023-04-15T11:30:54;16.80;95.90
73643;DHT22;61938;48.652;9.292;2023-04-15T11:33:21;16.50;93.80
73643;DHT22;61938;48.652;9.292;2023-04-15T11:35:47;16.30;94.50
73643;DHT22;61938;48.652;9.292;2023-04-15T11:38:14;16.20;94.20
73643;DHT22;61938;48.652;9.292;2023-04-15T11:40:40;16.20;95.30
73643;DHT22;61938;48.652;9.292;2023-04-15T11:43:11;16.20;94.70
73643;DHT22;61938;48.652;9.292;2023-04-15T11:45:43;16.10;94.70
73643;DHT22;61938;48.652;9.292;2023-04-15T11:48:12;15.60;93.20
73643;DHT22;61938;48.652;9.292;2023-04-15T11:50:39;15.40;93.90
73643;DHT22;61938;48.652;9.292;2023-04-15T11:53:07;15.30;94.40
73643;DHT22;61938;48.652;9.292;2023-04-15T11:55:52;15.20;95.80
73643;DHT22;61938;48.652;9.292;2023-04-15T11:58:24;15.20;95.80
73643;DHT22;61938;48.652;9.292;2023-04-15T12:00:58;15.50;96.70
73643;DHT22;61938;48.652;9.292;2023-04-15T12:03:46;15.90;97.30
73643;DHT22;61938;48.652;9.292;2023-04-15T12:11:40;16.40;95.10
73643;DHT22;61938;48.652;9.292;2023-04-15T12:14:31;16.10;94.40
73643;DHT22;61938;48.652;9.292;2023-04-15T12:16:58;15.80;95.50
73643;DHT22;61938;48.652;9.292;2023-04-15T12:19:30;15.60;96.30
73643;DHT22;61938;48.652;9.292;2023-04-15T12:22:02;15.20;96.50
73643;DHT22;61938;48.652;9.292;2023-04-15T12:24:30;14.90;96.20
73643;DHT22;61938;48.652;9.292;2023-04-15T12:26:57;14.40;97.30
73643;DHT22;61938;48.652;9.292;2023-04-15T12:29:28;14.10;99.80
73643;DHT22;61938;48.652;9.292;2023-04-15T12:31:56;13.80;99.90
73643;DHT22;61938;48.652;9.292;2023-04-15T12:35:11;13.50;99.90
73643;DHT22;61938;48.652;9.292;2023-04-15T12:37:21;13.40;99.90
73643;DHT22;61938;48.652;9.292;2023-04-15T12:39:47;13.60;99.90
73643;DHT22;61938;48.652;9.292;2023-04-15T12:42:15;13.70;99.90
73643;DHT22;61938;48.652;9.292;2023-04-15T12:44:41;13.80;99.90
73643;DHT22;61938;48.652;9.292;2023-04-15T12:47:08;13.90;99.90
73643;DHT22;61938;48.652;9.292;2023-04-15T12:49:33;14.00;99.90
73643;DHT22;61938;48.652;9.292;2023-04-15T12:52:00;13.90;99.90
73643;DHT22;61938;48.652;9.292;2023-04-15T12:54:27;13.70;99.90
73643;DHT22;61938;48.652;9.292;2023-04-15T12:56:53;13.30;99.90
73643;DHT22;61938;48.652;9.292;2023-04-15T12:59:19;12.70;99.90
73643;DHT22;61938;48.652;9.292;2023-04-15T13:01:45;12.20;99.90
73643;DHT22;61938;48.652;9.292;2023-04-15T13:04:11;11.80;99.90
73643;DHT22;61938;48.652;9.292;2023-04-15T13:06:37;11.60;99.90
73643;DHT22;61938;48.652;9.292;2023-04-15T13:09:03;11.50;99.90
73643;DHT22;61938;48.652;9.292;2023-04-15T13:11:29;11.40;99.90
73643;DHT22;61938;48.652;9.292;2023-04-15T13:13:56;11.50;99.90
73643;DHT22;61938;48.652;9.292;2023-04-15T13:16:22;11.70;99.90
73643;DHT22;61938;48.652;9.292;2023-04-15T13:18:48;11.70;99.90
73643;DHT22;61938;48.652;9.292;2023-04-15T13:21:14;11.80;99.90
73643;DHT22;61938;48.652;9.292;2023-04-15T13:23:41;11.80;99.90
73643;DHT22;61938;48.652;9.292;2023-04-15T13:26:06;11.80;99.90
73643;DHT22;61938;48.652;9.292;2023-04-15T13:28:32;11.80;99.90
73643;DHT22;61938;48.652;9.292;2023-04-15T13:30:58;12.00;99.90
73643;DHT22;61938;48.652;9.292;2023-04-15T13:33:25;12.10;99.90
73643;DHT22;61938;48.652;9.292;2023-04-15T13:35:50;12.10;99.90
73643;DHT22;61938;48.652;9.292;2023-04-15T13:38:16;12.20;99.90
73643;DHT22;61938;48.652;9.292;2023-04-15T13:40:41;12.20;99.90
73643;DHT22;61938;48.652;9.292;2023-04-15T13:43:07;12.10;99.90
73643;DHT22;61938;48.652;9.292;2023-04-15T13:45:33;12.00;99.90
73643;DHT22;61938;48.652;9.292;2023-04-15T13:47:59;12.10;99.90
73643;DHT22;61938;48.652;9.292;2023-04-15T13:50:24;12.10;99.90
73643;DHT22;61938;48.652;9.292;2023-04-15T13:52:50;12.10;99.90
73643;DHT22;61938;48.652;9.292;2023-04-15T13:55:15;12.20;99.90
73643;DHT22;61938;48.652;9.292;2023-04-15T13:57:41;12.30;99.90
73643;DHT22;61938;48.652;9.292;2023-04-15T14:00:07;12.40;99.90
73643;DHT22;61938;48.652;9.292;2023-04-15T14:02:33;12.30;99.90
73643;DHT22;61938;48.652;9.292;2023-04-15T14:04:58;12.40;99.90
73643;DHT22;61938;48.652;9.292;2023-04-15T14:07:24;12.50;99.90
73643;DHT22;61938;48.652;9.292;2023-04-15T14:09:49;12.40;99.90
73643;DHT22;61938;48.652;9.292;2023-04-15T14:12:15;12.40;99.90
73643;DHT22;61938;48.652;9.292;2023-04-15T14:14:40;13.20;99.90
73643;DHT22;61938;48.652;9.292;2023-04-15T14:17:06;12.40;99.90
73643;DHT22;61938;48.652;9.292;2023-04-15T14:19:32;12.40;99.90
73643;DHT22;61938;48.652;9.292;2023-04-15T14:21:58;12.30;99.90
73643;DHT22;61938;48.652;9.292;2023-04-15T14:24:24;12.30;99.90
73643;DHT22;61938;48.652;9.292;2023-04-15T14:26:49;12.10;99.90
73643;DHT22;61938;48.652;9.292;2023-04-15T14:29:15;12.00;99.90
73643;DHT22;61938;48.652;9.292;2023-04-15T14:31:41;12.00;99.90
73643;DHT22;61938;48.652;9.292;2023-04-15T14:34:09;12.00;99.90
73643;DHT22;61938;48.652;9.292;2023-04-15T14:36:35;11.90;99.90
73643;DHT22;61938;48.652;9.292;2023-04-15T14:39:00;11.80;99.90
73643;DHT22;61938;48.652;9.292;2023-04-15T14:41:26;11.70;99.90
73643;DHT22;61938;48.652;9.292;2023-04-15T14:43:51;11.70;99.90
73643;DHT22;61938;48.652;9.292;2023-04-15T14:46:17;11.80;99.90
73643;DHT22;61938;48.652;9.292;2023-04-15T14:48:43;11.80;99.90
73643;DHT22;61938;48.652;9.292;2023-04-15T14:51:08;11.80;99.90
73643;DHT22;61938;48.652;9.292;2023-04-15T14:53:34;11.80;99.90
73643;DHT22;61938;48.652;9.292;2023-04-15T14:56:00;11.70;99.90
73643;DHT22;61938;48.652;9.292;2023-04-15T14:58:25;11.60;99.90
73643;DHT22;61938;48.652;9.292;2023-04-15T15:00:51;11.60;99.90
73643;DHT22;61938;48.652;9.292;2023-04-15T15:03:17;11.50;99.90
73643;DHT22;61938;48.652;9.292;2023-04-15T15:05:44;11.50;99.90
73643;DHT22;61938;48.652;9.292;2023-04-15T15:08:11;11.50;99.90
73643;DHT22;61938;48.652;9.292;2023-04-15T15:10:37;11.50;99.90
73643;DHT22;61938;48.652;9.292;2023-04-15T15:13:08;11.40;99.90
73643;DHT22;61938;48.652;9.292;2023-04-15T15:15:35;11.40;99.90
73643;DHT22;61938;48.652;9.292;2023-04-15T15:18:01;11.30;99.90
73643;DHT22;61938;48.652;9.292;2023-04-15T15:20:27;11.30;99.90
73643;DHT22;61938;48.652;9.292;2023-04-15T15:22:52;11.30;99.90
73643;DHT22;61938;48.652;9.292;2023-04-15T15:25:18;11.20;99.90
73643;DHT22;61938;48.652;9.292;2023-04-15T15:27:43;11.10;99.90
73643;DHT22;61938;48.652;9.292;2023-04-15T15:30:09;11.00;99.90
73643;DHT22;61938;48.652;9.292;2023-04-15T15:32:36;10.90;99.90
73643;DHT22;61938;48.652;9.292;2023-04-15T15:35:02;10.70;99.90
73643;DHT22;61938;48.652;9.292;2023-04-15T15:37:29;10.60;99.90
73643;DHT22;61938;48.652;9.292;2023-04-15T15:39:55;10.60;99.90
73643;DHT22;61938;48.652;9.292;2023-04-15T15:42:21;10.50;99.90
73643;DHT22;61938;48.652;9.292;2023-04-15T15:44:48;10.50;99.90
73643;DHT22;61938;48.652;9.292;2023-04-15T15:47:14;10.50;99.90
73643;DHT22;61938;48.652;9.292;2023-04-15T15:49:40;10.40;99.90
73643;DHT22;61938;48.652;9.292;2023-04-15T15:52:06;10.40;99.90